Time;durP1;ratioP1;P1;durP2;ratioP2;P2;SDS_P1;SDS_P2;PMS_P1;PMS_P2;Temp;Humidity;BMP_temperature;BMP_pressure;BME280_temperature;BME280_humidity;BME280_pressure;Samples;Min_cycle;Max_cycle;Signal;HPM_P1;HPM_P2
2022/07/08 00:02:23;;;;;;;7.93;3.37;;;16.80;62.00;;;;;;4976536;28;20176;-89
2022/07/08 00:04:49;;;;;;;8.77;4.00;;;16.80;61.70;;;;;;4978544;28;20186;-90
2022/07/08 00:07:15;;;;;;;11.40;4.03;;;16.80;62.00;;;;;;4986572;28;20789;-89
2022/07/08 00:09:40;;;;;;;8.30;3.23;;;16.70;62.10;;;;;;4995828;28;20419;-88
2022/07/08 00:12:06;;;;;;;8.53;3.60;;;16.70;62.20;;;;;;4995347;28;20255;-89
2022/07/08 00:14:32;;;;;;;7.70;3.40;;;16.70;62.50;;;;;;4989975;28;20246;-89
2022/07/08 00:16:58;;;;;;;6.93;4.27;;;16.70;62.50;;;;;;4979152;28;20490;-89
2022/07/08 00:19:24;;;;;;;7.50;3.80;;;16.70;62.80;;;;;;4978259;28;20487;-89
2022/07/08 00:21:49;;;;;;;9.80;3.30;;;16.60;62.80;;;;;;4978726;28;20188;-89
2022/07/08 00:24:16;;;;;;;9.83;4.30;;;16.60;62.80;;;;;;4977838;28;20187;-89
2022/07/08 00:26:43;;;;;;;6.50;3.30;;;16.60;63.10;;;;;;4977674;28;20436;-89
2022/07/08 00:29:10;;;;;;;14.90;4.45;;;16.60;63.40;;;;;;4980626;28;20224;-89
2022/07/08 00:31:35;;;;;;;9.27;4.25;;;16.60;63.30;;;;;;4999213;28;20191;-89
2022/07/08 00:34:01;;;;;;;7.53;3.50;;;16.60;63.50;;;;;;4979912;28;20194;-89
2022/07/08 00:36:27;;;;;;;10.60;4.60;;;16.50;63.70;;;;;;4985712;28;20206;-89
2022/07/08 00:38:53;;;;;;;6.80;4.10;;;16.50;63.70;;;;;;4995800;28;20268;-88
2022/07/08 00:41:19;;;;;;;9.45;3.97;;;16.50;63.80;;;;;;4996521;28;20203;-89
2022/07/08 00:43:47;;;;;;;8.85;4.53;;;16.40;63.80;;;;;;4999623;28;20186;-89
2022/07/08 00:46:14;;;;;;;12.40;4.60;;;16.40;63.60;;;;;;4996453;28;20179;-89
2022/07/08 00:48:40;;;;;;;5.63;3.42;;;16.50;64.00;;;;;;4995287;28;20207;-90
2022/07/08 00:51:07;;;;;;;6.40;3.70;;;16.50;63.80;;;;;;4996081;28;20183;-89
2022/07/08 00:53:35;;;;;;;6.10;3.60;;;16.50;63.80;;;;;;4985206;28;20184;-89
2022/07/08 00:56:03;;;;;;;8.70;4.18;;;16.50;63.60;;;;;;4976584;28;20351;-89
2022/07/08 00:58:30;;;;;;;6.70;3.88;;;16.50;63.50;;;;;;4975723;28;20208;-90
2022/07/08 01:00:56;;;;;;;7.28;3.80;;;16.50;63.80;;;;;;4978325;28;20172;-90
2022/07/08 01:03:22;;;;;;;7.67;4.53;;;16.50;63.80;;;;;;4977289;28;20187;-90
2022/07/08 01:05:48;;;;;;;8.97;4.13;;;16.60;63.00;;;;;;4976866;28;20538;-90
2022/07/08 01:08:14;;;;;;;9.07;4.40;;;16.60;62.90;;;;;;5000656;28;20506;-87
2022/07/08 01:10:40;;;;;;;8.47;4.57;;;16.50;63.70;;;;;;5003302;28;20418;-89
2022/07/08 01:13:06;;;;;;;9.68;4.30;;;16.50;64.10;;;;;;5006092;28;20450;-90
2022/07/08 01:15:33;;;;;;;7.53;3.92;;;16.40;64.00;;;;;;5001231;28;20596;-89
2022/07/08 01:17:59;;;;;;;8.20;3.67;;;16.40;64.30;;;;;;4995973;28;20200;-89
2022/07/08 01:20:25;;;;;;;6.15;3.88;;;16.40;64.70;;;;;;4995218;28;20179;-90
2022/07/08 01:22:51;;;;;;;10.23;4.20;;;16.40;65.10;;;;;;4994886;28;20266;-89
2022/07/08 01:25:17;;;;;;;12.60;4.75;;;16.30;65.20;;;;;;4995326;28;20781;-90
2022/07/08 01:27:43;;;;;;;7.10;3.97;;;16.30;65.60;;;;;;4994819;28;20230;-88
2022/07/08 01:30:09;;;;;;;10.83;4.57;;;16.30;65.30;;;;;;4998159;28;20418;-87
2022/07/08 01:32:37;;;;;;;9.13;3.75;;;16.30;65.60;;;;;;4994434;28;20558;-89
2022/07/08 01:35:04;;;;;;;10.73;4.20;;;16.20;65.80;;;;;;4977474;28;20570;-89
2022/07/08 01:37:30;;;;;;;9.40;4.18;;;16.20;66.20;;;;;;4992824;28;20273;-90
2022/07/08 01:39:56;;;;;;;8.25;3.85;;;16.10;66.20;;;;;;4979293;28;20222;-90
2022/07/08 01:42:22;;;;;;;6.63;3.60;;;16.10;66.50;;;;;;4995158;28;20175;-89
2022/07/08 01:44:48;;;;;;;10.53;3.33;;;16.20;66.30;;;;;;4994865;28;20190;-90
2022/07/08 01:47:13;;;;;;;10.20;3.63;;;16.10;66.50;;;;;;4994736;28;20555;-89
2022/07/08 01:49:39;;;;;;;5.80;3.33;;;16.20;66.50;;;;;;4995500;28;20242;-90
2022/07/08 01:52:06;;;;;;;5.73;3.23;;;16.10;66.90;;;;;;4995286;28;20187;-88
2022/07/08 01:54:32;;;;;;;10.98;3.72;;;16.10;66.80;;;;;;4977200;28;20247;-90
2022/07/08 01:57:16;;;;;;;14.45;4.40;;;16.10;67.20;;;;;;4975039;28;20216;-90
2022/07/08 01:59:43;;;;;;;8.55;3.58;;;16.10;67.50;;;;;;4976208;28;20222;-90
2022/07/08 02:02:09;;;;;;;10.70;4.35;;;16.10;67.10;;;;;;4975873;28;20191;-90
2022/07/08 02:04:43;;;;;;;7.35;3.13;;;16.10;66.80;;;;;;4976347;28;20183;-90
2022/07/08 02:07:09;;;;;;;5.03;2.90;;;16.00;66.80;;;;;;4976858;28;20199;-90
2022/07/08 02:09:35;;;;;;;7.05;4.25;;;16.00;67.10;;;;;;4976232;28;20187;-88
2022/07/08 02:12:21;;;;;;;8.07;3.33;;;16.00;67.40;;;;;;4976672;28;20204;-88
2022/07/08 02:14:52;;;;;;;13.85;3.85;;;16.00;67.80;;;;;;4978503;28;20464;-87
2022/07/08 02:17:20;;;;;;;12.25;3.80;;;15.90;68.20;;;;;;4975402;28;20242;-89
2022/07/08 02:19:46;;;;;;;11.00;3.40;;;15.80;68.20;;;;;;4976187;28;20186;-90
2022/07/08 02:22:12;;;;;;;15.10;4.00;;;15.90;68.50;;;;;;4976774;28;20282;-88
2022/07/08 02:24:38;;;;;;;7.53;3.30;;;15.90;68.60;;;;;;4994070;28;20443;-88
2022/07/08 02:27:04;;;;;;;7.97;3.00;;;15.90;68.50;;;;;;4983478;28;20192;-88
2022/07/08 02:29:30;;;;;;;8.48;4.07;;;15.80;68.40;;;;;;4974150;28;20205;-90
2022/07/08 02:31:57;;;;;;;9.70;3.47;;;15.80;68.50;;;;;;4974825;28;20190;-90
2022/07/08 02:34:23;;;;;;;6.32;3.13;;;15.80;68.10;;;;;;4976400;28;20186;-90
2022/07/08 02:36:49;;;;;;;10.97;3.70;;;15.80;68.30;;;;;;4985526;28;20207;-90
2022/07/08 02:39:14;;;;;;;9.10;3.22;;;15.80;68.50;;;;;;4993943;28;20461;-90
2022/07/08 02:41:41;;;;;;;8.10;3.40;;;15.80;68.50;;;;;;4994173;28;20183;-90
2022/07/08 02:44:07;;;;;;;6.65;2.85;;;15.80;68.20;;;;;;4995364;28;20194;-90
2022/07/08 02:46:33;;;;;;;8.93;3.20;;;15.80;68.00;;;;;;4993829;28;20659;-90
2022/07/08 02:48:59;;;;;;;8.10;3.60;;;15.90;67.70;;;;;;4994884;28;20461;-89
2022/07/08 02:51:25;;;;;;;5.43;3.20;;;15.80;68.30;;;;;;4993817;28;20209;-90
2022/07/08 02:53:51;;;;;;;8.38;3.42;;;15.80;68.40;;;;;;4964598;28;20514;-89
2022/07/08 02:56:17;;;;;;;10.23;4.63;;;15.80;68.90;;;;;;4973556;28;20530;-89
2022/07/08 02:58:42;;;;;;;6.63;2.83;;;15.80;69.30;;;;;;4974053;28;20214;-89
2022/07/08 03:01:09;;;;;;;7.97;3.40;;;15.70;69.10;;;;;;4974869;28;20180;-89
2022/07/08 03:03:35;;;;;;;6.68;3.50;;;15.70;69.10;;;;;;4975747;28;20446;-89
2022/07/08 03:06:01;;;;;;;10.60;4.33;;;15.60;69.50;;;;;;4974798;28;20184;-89
2022/07/08 03:08:27;;;;;;;5.70;2.47;;;15.60;69.80;;;;;;4993676;28;20195;-89
2022/07/08 03:10:53;;;;;;;6.10;2.70;;;15.60;69.90;;;;;;4983605;28;20423;-89
2022/07/08 03:13:18;;;;;;;14.35;2.90;;;15.60;69.70;;;;;;4975418;28;20474;-89
2022/07/08 03:15:44;;;;;;;7.40;3.37;;;15.60;69.60;;;;;;4974308;28;20212;-89
2022/07/08 03:18:10;;;;;;;4.83;2.87;;;15.60;69.80;;;;;;4974074;28;20254;-89
2022/07/08 03:20:35;;;;;;;13.03;4.70;;;15.60;69.40;;;;;;4976365;28;20234;-89
2022/07/08 03:23:01;;;;;;;13.50;3.30;;;15.60;69.60;;;;;;4975646;28;20199;-89
2022/07/08 03:25:27;;;;;;;8.30;3.73;;;15.60;69.80;;;;;;4975349;28;20183;-89
2022/07/08 03:27:53;;;;;;;7.37;4.67;;;15.60;70.60;;;;;;4974380;28;20199;-89
2022/07/08 03:30:18;;;;;;;6.97;3.80;;;15.60;70.50;;;;;;4975032;28;20264;-88
2022/07/08 03:32:44;;;;;;;11.50;4.70;;;15.50;70.80;;;;;;4977550;28;20223;-89
2022/07/08 03:35:10;;;;;;;13.50;5.40;;;15.50;71.50;;;;;;4974201;28;20271;-88
2022/07/08 03:37:43;;;;;;;8.63;4.75;;;15.50;72.10;;;;;;4975014;28;20321;-88
2022/07/08 03:42:54;;;;;;;15.60;5.03;;;15.40;72.50;;;;;;4983309;28;20186;-89
2022/07/08 03:45:21;;;;;;;8.10;4.60;;;15.40;72.60;;;;;;4980493;28;20175;-88
2022/07/08 03:47:47;;;;;;;6.07;3.85;;;15.40;72.60;;;;;;4979518;28;20199;-88
2022/07/08 03:50:13;;;;;;;8.90;5.03;;;15.40;72.60;;;;;;4979966;28;20206;-88
2022/07/08 03:52:39;;;;;;;6.72;4.13;;;15.40;72.70;;;;;;4983803;28;20453;-89
2022/07/08 03:55:05;;;;;;;10.77;5.13;;;15.40;72.70;;;;;;4999702;28;20269;-88
2022/07/08 03:57:31;;;;;;;8.80;4.55;;;15.40;72.80;;;;;;5000163;28;20202;-89
2022/07/08 03:59:57;;;;;;;6.60;4.73;;;15.40;73.40;;;;;;5001442;28;20237;-88
2022/07/08 04:02:23;;;;;;;8.10;4.75;;;15.40;73.20;;;;;;5000405;28;20583;-89
2022/07/08 04:04:49;;;;;;;7.03;4.53;;;15.40;73.50;;;;;;4999384;28;20179;-89
2022/07/08 04:07:15;;;;;;;9.13;5.45;;;15.40;73.70;;;;;;4999090;28;20647;-89
2022/07/08 04:09:41;;;;;;;11.63;6.15;;;15.40;73.90;;;;;;4998300;28;20591;-89
2022/07/08 04:12:07;;;;;;;11.23;5.40;;;15.40;74.90;;;;;;4980420;28;20640;-89
2022/07/08 04:14:33;;;;;;;9.07;5.00;;;15.40;74.50;;;;;;4980734;28;20188;-88
2022/07/08 04:16:59;;;;;;;7.53;4.93;;;15.40;74.70;;;;;;4986149;28;20284;-88
2022/07/08 04:19:25;;;;;;;10.00;5.37;;;15.40;74.70;;;;;;5002475;28;20482;-89
2022/07/08 04:21:51;;;;;;;13.83;5.57;;;15.40;74.80;;;;;;4982549;28;20187;-89
2022/07/08 04:24:16;;;;;;;10.03;5.27;;;15.40;74.80;;;;;;4980125;28;20465;-89
2022/07/08 04:26:42;;;;;;;10.27;4.83;;;15.50;74.90;;;;;;4980038;28;20211;-89
2022/07/08 04:29:08;;;;;;;11.23;4.77;;;15.70;74.00;;;;;;4980978;28;20275;-89
2022/07/08 04:31:33;;;;;;;5.80;4.20;;;15.70;73.20;;;;;;4980726;28;20194;-90
2022/07/08 04:33:59;;;;;;;10.37;6.13;;;15.80;72.90;;;;;;4964322;28;20199;-89
2022/07/08 04:36:25;;;;;;;12.00;4.87;;;15.80;72.50;;;;;;4989061;28;20558;-90
2022/07/08 04:38:50;;;;;;;10.10;4.43;;;16.00;72.10;;;;;;4999412;28;20257;-90
2022/07/08 04:41:16;;;;;;;9.40;4.43;;;16.00;71.80;;;;;;4999466;28;20206;-89
2022/07/08 04:43:45;;;;;;;11.20;4.50;;;16.00;71.60;;;;;;5000583;28;20626;-89
2022/07/08 04:46:12;;;;;;;13.82;4.45;;;16.00;71.90;;;;;;5001202;28;20949;-89
2022/07/08 04:48:38;;;;;;;9.45;5.07;;;16.00;72.10;;;;;;4976379;28;20712;-88
2022/07/08 04:51:04;;;;;;;8.67;4.80;;;16.00;72.10;;;;;;4993912;28;20195;-88
2022/07/08 04:53:30;;;;;;;9.60;5.20;;;16.00;72.50;;;;;;5005274;28;20434;-88
2022/07/08 04:55:55;;;;;;;11.23;5.43;;;16.00;72.70;;;;;;5005940;28;20516;-88
2022/07/08 04:58:21;;;;;;;9.43;4.50;;;16.00;73.10;;;;;;4995430;28;20206;-89
2022/07/08 05:00:47;;;;;;;9.83;5.07;;;16.00;73.30;;;;;;4995023;28;20179;-89
2022/07/08 05:03:12;;;;;;;12.13;5.20;;;15.90;73.40;;;;;;4995718;28;20185;-90
2022/07/08 05:05:38;;;;;;;12.30;5.47;;;16.00;73.60;;;;;;4996602;28;20666;-91
2022/07/08 05:08:04;;;;;;;11.63;5.17;;;16.00;73.70;;;;;;4995532;28;20282;-91
2022/07/08 05:10:30;;;;;;;12.45;5.47;;;16.00;73.80;;;;;;4996352;28;20182;-90
2022/07/08 05:12:57;;;;;;;9.63;5.50;;;16.00;73.60;;;;;;4996160;28;20179;-90
2022/07/08 05:15:24;;;;;;;12.77;4.40;;;16.10;73.50;;;;;;5000761;28;20264;-90
2022/07/08 05:17:53;;;;;;;16.42;4.95;;;16.10;73.40;;;;;;4996587;28;20207;-91
2022/07/08 05:20:20;;;;;;;10.40;4.32;;;16.20;73.30;;;;;;4997561;28;20182;-90
2022/07/08 05:22:46;;;;;;;9.30;4.50;;;16.40;73.00;;;;;;4996956;28;20183;-89
2022/07/08 05:25:13;;;;;;;11.40;4.72;;;16.80;72.30;;;;;;4996678;28;20175;-90
2022/07/08 05:27:39;;;;;;;12.52;4.25;;;17.50;70.00;;;;;;4996254;28;20747;-89
2022/07/08 05:30:06;;;;;;;11.52;3.90;;;18.50;66.70;;;;;;4996921;28;20193;-89
2022/07/08 05:32:33;;;;;;;12.97;4.90;;;19.30;62.70;;;;;;4995352;28;20187;-89
2022/07/08 05:34:58;;;;;;;11.03;3.37;;;20.30;59.70;;;;;;4996936;28;20425;-90
2022/07/08 05:37:24;;;;;;;12.47;4.17;;;21.40;57.00;;;;;;4979918;28;20455;-90
2022/07/08 05:39:52;;;;;;;14.00;4.03;;;22.00;53.30;;;;;;4980342;28;20168;-89
2022/07/08 05:42:17;;;;;;;9.70;4.47;;;22.60;51.40;;;;;;4978057;28;20164;-87
2022/07/08 05:44:43;;;;;;;6.63;4.20;;;22.90;50.20;;;;;;4977084;28;20415;-90
2022/07/08 05:47:09;;;;;;;10.50;3.17;;;23.60;48.90;;;;;;4979315;28;20254;-88
2022/07/08 05:49:35;;;;;;;7.03;3.87;;;24.00;48.30;;;;;;4977785;28;20249;-88
2022/07/08 05:52:03;;;;;;;9.73;3.43;;;24.30;46.10;;;;;;4960946;28;20256;-88
2022/07/08 05:54:32;;;;;;;15.73;3.80;;;23.80;47.10;;;;;;4996480;28;20907;-89
2022/07/08 05:56:58;;;;;;;9.37;3.43;;;24.40;45.70;;;;;;4996292;28;20473;-88
2022/07/08 05:59:24;;;;;;;7.57;3.17;;;24.20;45.80;;;;;;4995745;28;20473;-89
2022/07/08 06:01:49;;;;;;;9.07;3.40;;;24.30;45.70;;;;;;4996166;28;20538;-89
2022/07/08 06:04:15;;;;;;;10.83;3.47;;;23.40;46.50;;;;;;4995770;28;20548;-88
2022/07/08 06:06:41;;;;;;;12.90;3.43;;;22.50;49.40;;;;;;4995872;28;20179;-90
2022/07/08 06:09:07;;;;;;;6.13;2.70;;;22.00;51.40;;;;;;4995755;28;20206;-88
2022/07/08 06:11:32;;;;;;;8.80;2.10;;;21.50;53.00;;;;;;5001043;28;20163;-88
2022/07/08 06:13:59;;;;;;;8.53;2.80;;;21.00;54.70;;;;;;5001805;28;20242;-88
2022/07/08 06:16:24;;;;;;;14.40;3.13;;;20.80;56.10;;;;;;4997909;28;20199;-89
2022/07/08 06:18:50;;;;;;;13.77;3.30;;;20.80;56.40;;;;;;4993321;28;20480;-89
2022/07/08 06:21:16;;;;;;;8.77;3.10;;;20.90;56.40;;;;;;4994934;28;20425;-91
2022/07/08 06:23:42;;;;;;;16.30;4.10;;;21.10;56.00;;;;;;4993932;28;20175;-90
2022/07/08 06:26:07;;;;;;;9.37;3.17;;;21.10;56.10;;;;;;4993693;28;20183;-90
2022/07/08 06:28:33;;;;;;;18.23;3.30;;;21.50;55.20;;;;;;4994493;28;20195;-88
2022/07/08 06:30:59;;;;;;;11.17;3.27;;;21.30;55.30;;;;;;4993461;28;20203;-90
2022/07/08 06:33:24;;;;;;;14.70;3.90;;;21.50;55.10;;;;;;4975110;28;20184;-90
2022/07/08 06:35:50;;;;;;;7.80;3.20;;;21.40;55.80;;;;;;4974265;28;20573;-91
2022/07/08 06:38:16;;;;;;;8.60;3.17;;;21.60;54.30;;;;;;4958266;28;20459;-88
2022/07/08 06:40:42;;;;;;;9.50;3.10;;;21.40;54.80;;;;;;4975354;28;20250;-89
2022/07/08 06:43:07;;;;;;;11.53;2.80;;;21.40;54.90;;;;;;4974659;28;20214;-90
2022/07/08 06:45:33;;;;;;;8.83;3.30;;;21.50;54.60;;;;;;4974463;28;20187;-89
2022/07/08 06:47:59;;;;;;;5.90;2.60;;;21.60;54.30;;;;;;4958113;28;20200;-91
2022/07/08 06:50:25;;;;;;;8.70;3.60;;;21.80;54.50;;;;;;4984635;28;20430;-90
2022/07/08 06:52:51;;;;;;;10.17;3.33;;;22.30;52.30;;;;;;4996145;28;20817;-89
2022/07/08 06:55:16;;;;;;;13.70;3.40;;;22.20;53.00;;;;;;4995466;28;20937;-90
2022/07/08 06:57:42;;;;;;;9.70;3.13;;;22.00;53.10;;;;;;4993220;28;20529;-91
2022/07/08 07:00:08;;;;;;;10.93;4.03;;;21.60;53.80;;;;;;4994202;28;20738;-90
2022/07/08 07:02:34;;;;;;;7.80;3.00;;;21.30;55.10;;;;;;4997370;28;20176;-90
2022/07/08 07:05:00;;;;;;;9.83;4.30;;;21.80;54.60;;;;;;4979375;28;20502;-89
2022/07/08 07:07:27;;;;;;;10.63;3.50;;;21.90;54.20;;;;;;4993850;28;20179;-88
2022/07/08 07:09:53;;;;;;;10.33;2.97;;;22.50;52.60;;;;;;4994523;28;20434;-90
2022/07/08 07:12:19;;;;;;;14.93;4.30;;;22.20;52.80;;;;;;4996450;28;20418;-90
2022/07/08 07:14:45;;;;;;;12.17;3.07;;;22.00;53.60;;;;;;4995125;28;20864;-90
2022/07/08 07:17:11;;;;;;;9.00;3.17;;;22.40;53.00;;;;;;4995116;28;20270;-90
2022/07/08 07:19:37;;;;;;;13.27;4.30;;;22.90;52.20;;;;;;4994681;28;20225;-90
2022/07/08 07:22:03;;;;;;;15.43;3.83;;;23.20;50.20;;;;;;4995630;28;20827;-90
2022/07/08 07:24:29;;;;;;;12.57;3.13;;;22.50;51.50;;;;;;4994995;28;20175;-89
2022/07/08 07:26:55;;;;;;;14.67;4.13;;;22.40;52.70;;;;;;4993913;28;20572;-90
2022/07/08 07:29:21;;;;;;;13.43;3.80;;;22.20;53.30;;;;;;4997930;28;20198;-90
2022/07/08 07:31:47;;;;;;;8.27;3.77;;;22.60;52.90;;;;;;4996554;28;20418;-89
2022/07/08 07:34:13;;;;;;;12.97;4.50;;;22.50;52.80;;;;;;4995108;28;20422;-89
2022/07/08 07:36:38;;;;;;;12.10;3.80;;;22.20;53.30;;;;;;4994317;28;20492;-89
2022/07/08 07:39:04;;;;;;;18.20;5.20;;;21.90;53.90;;;;;;4996726;28;20992;-89
2022/07/08 07:41:31;;;;;;;11.17;3.90;;;21.20;54.80;;;;;;4999054;28;20642;-88
2022/07/08 07:43:57;;;;;;;16.00;4.27;;;21.60;53.50;;;;;;4998869;28;20417;-89
2022/07/08 07:46:23;;;;;;;8.80;4.10;;;21.50;54.30;;;;;;4998356;28;20958;-90
2022/07/08 07:48:48;;;;;;;11.90;4.53;;;21.10;55.20;;;;;;5005478;28;20525;-90
2022/07/08 07:51:14;;;;;;;7.77;4.10;;;20.50;56.80;;;;;;4991597;28;20198;-87
2022/07/08 07:53:40;;;;;;;7.73;4.27;;;20.10;57.40;;;;;;5006998;28;20187;-89
2022/07/08 07:56:06;;;;;;;9.63;3.90;;;19.60;58.40;;;;;;5004039;28;20237;-89
2022/07/08 07:58:32;;;;;;;9.27;3.43;;;19.70;59.40;;;;;;4996898;28;20798;-89
2022/07/08 08:00:59;;;;;;;11.80;4.40;;;19.90;59.00;;;;;;4974147;28;20432;-89
2022/07/08 08:03:25;;;;;;;14.13;4.80;;;19.80;60.40;;;;;;4988529;28;20180;-89
2022/07/08 08:05:51;;;;;;;8.63;3.40;;;19.70;59.60;;;;;;5005123;28;20422;-90
2022/07/08 08:08:17;;;;;;;10.20;4.40;;;19.40;59.50;;;;;;5014004;28;20254;-89
2022/07/08 08:10:43;;;;;;;7.30;3.37;;;19.40;59.20;;;;;;4981811;28;21058;-90
2022/07/08 08:13:10;;;;;;;9.43;4.20;;;19.60;58.30;;;;;;4977213;28;20176;-90
2022/07/08 08:15:37;;;;;;;10.93;3.70;;;19.70;58.10;;;;;;4978225;28;20640;-90
2022/07/08 08:18:02;;;;;;;14.60;4.37;;;20.00;55.20;;;;;;4994941;28;20441;-90
2022/07/08 08:20:29;;;;;;;13.57;5.67;;;19.90;56.90;;;;;;4998841;28;20509;-88
2022/07/08 08:22:55;;;;;;;9.18;4.70;;;19.60;58.70;;;;;;4993608;28;20422;-90
2022/07/08 08:25:21;;;;;;;16.20;5.40;;;19.70;58.50;;;;;;5007508;28;20259;-89
2022/07/08 08:27:47;;;;;;;9.13;4.23;;;19.60;59.20;;;;;;4996702;28;20237;-89
2022/07/08 08:30:13;;;;;;;9.73;4.60;;;19.40;58.10;;;;;;4998581;28;20418;-89
2022/07/08 08:32:39;;;;;;;11.13;4.00;;;19.30;59.10;;;;;;4999467;28;20426;-90
2022/07/08 08:35:06;;;;;;;15.17;4.43;;;19.20;59.40;;;;;;4999327;28;20260;-90
2022/07/08 08:37:32;;;;;;;7.35;3.92;;;19.20;60.40;;;;;;4993148;28;20505;-90
2022/07/08 08:40:04;;;;;;;8.98;4.30;;;19.40;58.20;;;;;;4989601;28;20184;-89
2022/07/08 08:42:31;;;;;;;12.70;3.72;;;19.70;59.40;;;;;;4991903;28;20172;-90
2022/07/08 08:44:59;;;;;;;7.03;3.33;;;19.40;59.10;;;;;;4991780;28;20231;-91
2022/07/08 08:47:32;;;;;;;6.53;3.13;;;19.40;59.50;;;;;;4998729;28;20199;-90
2022/07/08 08:52:52;;;;;;;10.95;4.00;;;19.40;59.30;;;;;;4985241;28;20227;-90
2022/07/08 08:55:26;;;;;;;8.13;3.08;;;19.50;59.60;;;;;;4982675;28;20247;-90
2022/07/08 08:58:04;;;;;;;6.47;2.80;;;19.50;59.80;;;;;;4980590;28;20580;-90
2022/07/08 09:00:32;;;;;;;8.60;3.00;;;19.70;59.50;;;;;;4980883;28;20216;-90
2022/07/08 09:02:59;;;;;;;7.43;3.23;;;20.00;57.80;;;;;;4980558;28;20949;-90
2022/07/08 09:05:25;;;;;;;14.30;2.67;;;19.90;57.70;;;;;;4981556;28;20482;-90
2022/07/08 09:07:52;;;;;;;9.10;2.90;;;19.70;58.00;;;;;;4980048;28;20449;-89
2022/07/08 09:10:18;;;;;;;8.82;3.05;;;19.70;58.50;;;;;;4980626;28;20183;-90
2022/07/08 09:13:02;;;;;;;8.83;2.53;;;19.60;58.50;;;;;;4964845;28;20227;-90
2022/07/08 09:15:32;;;;;;;9.80;3.03;;;19.90;57.90;;;;;;4981108;28;20784;-90
2022/07/08 09:18:00;;;;;;;9.63;3.80;;;20.10;57.50;;;;;;4981182;28;20541;-90
2022/07/08 09:20:25;;;;;;;5.90;2.33;;;20.20;58.00;;;;;;4982360;28;20412;-90
2022/07/08 09:22:51;;;;;;;8.37;2.80;;;20.10;58.10;;;;;;4982001;28;20955;-90
2022/07/08 09:25:17;;;;;;;10.97;3.13;;;20.30;57.00;;;;;;4984544;28;20478;-91
2022/07/08 09:27:43;;;;;;;8.20;3.60;;;20.60;55.80;;;;;;4982805;28;20575;-91
2022/07/08 09:30:09;;;;;;;7.47;2.70;;;20.50;56.80;;;;;;4983129;28;20180;-91
2022/07/08 09:32:35;;;;;;;9.17;3.57;;;20.30;57.00;;;;;;4984740;28;20438;-92
2022/07/08 09:35:01;;;;;;;13.23;3.40;;;20.20;58.10;;;;;;5003753;28;20331;-90
2022/07/08 09:37:31;;;;;;;8.93;3.07;;;20.20;58.40;;;;;;5003481;28;20203;-91
2022/07/08 09:39:57;;;;;;;10.57;3.30;;;20.20;57.90;;;;;;5011954;28;20462;-90
2022/07/08 09:42:22;;;;;;;13.13;2.87;;;20.40;57.40;;;;;;5013422;28;20411;-90
2022/07/08 09:44:52;;;;;;;10.87;3.60;;;20.50;56.90;;;;;;5009561;28;20610;-91
2022/07/08 09:47:18;;;;;;;6.80;2.95;;;20.30;56.70;;;;;;5002313;28;20183;-90
2022/07/08 09:49:46;;;;;;;7.70;2.70;;;20.10;57.00;;;;;;5003640;28;20187;-90
2022/07/08 09:52:23;;;;;;;7.00;2.27;;;20.10;57.60;;;;;;5008116;28;20510;-90
2022/07/08 09:55:02;;;;;;;8.13;2.43;;;20.10;57.90;;;;;;5011036;28;20441;-89
2022/07/08 09:57:29;;;;;;;7.30;2.87;;;20.10;57.80;;;;;;5016324;28;20461;-90
2022/07/08 09:59:55;;;;;;;6.83;2.83;;;20.30;56.60;;;;;;5005330;28;20445;-89
2022/07/08 10:02:21;;;;;;;5.33;2.40;;;20.70;55.00;;;;;;4995735;28;20430;-90
2022/07/08 10:04:56;;;;;;;4.23;2.00;;;20.90;54.30;;;;;;4996489;28;20502;-90
2022/07/08 10:07:22;;;;;;;10.67;2.53;;;21.00;53.80;;;;;;4999387;28;20422;-90
2022/07/08 10:09:48;;;;;;;7.90;3.00;;;20.70;55.60;;;;;;4995524;28;20799;-90
2022/07/08 10:12:14;;;;;;;4.67;2.80;;;20.50;56.10;;;;;;4995612;28;20580;-89
2022/07/08 10:14:45;;;;;;;4.40;2.07;;;20.70;55.00;;;;;;4995602;28;20182;-89
2022/07/08 10:17:16;;;;;;;6.83;2.17;;;21.00;54.60;;;;;;4994668;28;21144;-90
2022/07/08 10:19:42;;;;;;;12.93;3.03;;;20.80;55.20;;;;;;4995630;28;20831;-89
2022/07/08 10:22:09;;;;;;;5.67;2.30;;;20.60;55.20;;;;;;4995312;28;20461;-90
2022/07/08 10:24:39;;;;;;;8.33;2.90;;;20.60;55.40;;;;;;4996295;28;20423;-90
2022/07/08 10:27:05;;;;;;;6.20;2.90;;;20.90;54.20;;;;;;4994911;28;20557;-89
2022/07/08 10:29:33;;;;;;;9.53;3.20;;;21.20;53.20;;;;;;4978679;28;20446;-89
2022/07/08 10:32:00;;;;;;;6.70;2.70;;;21.10;53.60;;;;;;4994683;28;20426;-90
2022/07/08 10:34:31;;;;;;;8.50;2.93;;;21.00;54.30;;;;;;4996745;28;20422;-89
2022/07/08 10:36:57;;;;;;;5.63;2.80;;;21.10;53.90;;;;;;4994650;28;20465;-90
2022/07/08 10:39:25;;;;;;;3.93;2.47;;;21.10;54.20;;;;;;4994369;28;20496;-90
2022/07/08 10:42:08;;;;;;;7.93;2.40;;;21.20;53.10;;;;;;4993455;28;20423;-90
2022/07/08 10:44:43;;;;;;;5.80;2.67;;;21.40;52.30;;;;;;4996304;28;20738;-89
2022/07/08 10:47:10;;;;;;;5.20;2.20;;;21.60;51.60;;;;;;4994508;28;20414;-90
2022/07/08 10:49:44;;;;;;;10.43;2.77;;;21.60;52.40;;;;;;4994358;28;20926;-90
2022/07/08 10:52:10;;;;;;;7.13;2.60;;;21.70;51.90;;;;;;4995480;28;20414;-90
2022/07/08 10:54:39;;;;;;;7.63;2.43;;;21.60;53.00;;;;;;4996315;28;20478;-90
2022/07/08 10:57:22;;;;;;;10.53;2.70;;;21.20;53.30;;;;;;4995630;28;20545;-90
2022/07/08 11:00:35;;;;;;;7.57;2.50;;;21.20;54.00;;;;;;4993967;28;20406;-90
2022/07/08 11:03:03;;;;;;;9.03;2.90;;;21.30;54.20;;;;;;4996321;28;20406;-90
2022/07/08 11:05:42;;;;;;;7.73;3.03;;;21.40;53.60;;;;;;4980605;28;20964;-89
2022/07/08 11:08:20;;;;;;;7.10;2.90;;;21.80;51.70;;;;;;4995258;28;20445;-89
2022/07/08 11:10:51;;;;;;;15.40;3.10;;;21.90;51.50;;;;;;4995552;28;20415;-90
2022/07/08 11:13:19;;;;;;;6.60;2.87;;;21.90;52.20;;;;;;4995843;28;20845;-90
2022/07/08 11:15:44;;;;;;;4.80;2.37;;;21.90;50.40;;;;;;4995844;28;20470;-90
2022/07/08 11:18:10;;;;;;;3.03;2.10;;;22.10;50.20;;;;;;4995373;28;20442;-91
2022/07/08 11:20:36;;;;;;;5.03;2.90;;;22.10;51.00;;;;;;4996869;28;20210;-89
2022/07/08 11:23:06;;;;;;;7.93;2.77;;;22.10;50.70;;;;;;4998244;28;20179;-88
2022/07/08 11:25:31;;;;;;;4.93;2.73;;;21.80;50.50;;;;;;4997087;28;20191;-90
2022/07/08 11:27:57;;;;;;;7.00;2.63;;;21.90;50.70;;;;;;4995620;28;20443;-89
2022/07/08 11:30:27;;;;;;;6.00;2.47;;;22.00;50.90;;;;;;4995819;28;20210;-89
2022/07/08 11:32:53;;;;;;;8.57;2.57;;;21.80;51.40;;;;;;4995296;28;20419;-90
2022/07/08 11:35:23;;;;;;;7.43;3.03;;;21.90;51.30;;;;;;4995965;28;20427;-89
2022/07/08 11:37:48;;;;;;;9.07;2.50;;;22.20;50.10;;;;;;4995514;28;20990;-90
2022/07/08 11:40:18;;;;;;;5.93;2.80;;;22.10;51.00;;;;;;4996246;28;20425;-89
2022/07/08 11:42:44;;;;;;;4.20;2.80;;;22.00;50.70;;;;;;4995719;28;20179;-89
2022/07/08 11:45:11;;;;;;;4.10;1.90;;;21.70;50.90;;;;;;4996282;28;20414;-89
2022/07/08 11:47:38;;;;;;;6.20;2.93;;;22.00;51.10;;;;;;5011793;28;20540;-91
2022/07/08 11:50:07;;;;;;;9.83;2.97;;;22.10;49.70;;;;;;5007830;28;20430;-90
2022/07/08 11:52:32;;;;;;;3.90;1.60;;;22.00;49.80;;;;;;4997916;28;20557;-90
2022/07/08 11:54:58;;;;;;;5.37;2.00;;;22.00;50.20;;;;;;4996192;28;20469;-90
2022/07/08 11:57:24;;;;;;;7.03;2.13;;;22.10;50.10;;;;;;4998404;28;20207;-91
2022/07/08 11:59:50;;;;;;;4.80;2.43;;;22.20;50.40;;;;;;5001346;28;20644;-88
2022/07/08 12:02:20;;;;;;;7.90;2.90;;;22.10;50.40;;;;;;5008053;28;20418;-88
2022/07/08 12:04:50;;;;;;;7.10;2.67;;;22.20;50.30;;;;;;4986722;28;20494;-88
2022/07/08 12:07:24;;;;;;;6.70;3.13;;;22.10;50.30;;;;;;5000633;28;20427;-90
2022/07/08 12:10:02;;;;;;;3.70;2.00;;;21.90;50.10;;;;;;5000703;28;20422;-91
2022/07/08 12:12:30;;;;;;;6.73;2.73;;;21.90;50.30;;;;;;5002600;28;20394;-89
2022/07/08 12:14:56;;;;;;;3.57;1.90;;;21.80;50.70;;;;;;5001946;28;20410;-89
2022/07/08 12:17:24;;;;;;;6.70;1.90;;;21.90;50.90;;;;;;5000813;28;20549;-91
2022/07/08 12:19:52;;;;;;;8.20;2.40;;;21.90;51.00;;;;;;5000015;28;20406;-90
2022/07/08 12:22:40;;;;;;;5.60;2.83;;;21.90;51.00;;;;;;5001181;28;20434;-90
2022/07/08 12:25:06;;;;;;;2.50;2.10;;;22.00;50.70;;;;;;4999373;28;20433;-88
2022/07/08 12:27:32;;;;;;;4.67;1.60;;;22.20;50.20;;;;;;4999787;28;20470;-89
2022/07/08 12:30:08;;;;;;;4.17;2.53;;;22.30;50.80;;;;;;4999253;28;20451;-88
2022/07/08 12:32:45;;;;;;;4.40;1.80;;;22.40;51.30;;;;;;4998826;28;20178;-87
2022/07/08 12:35:12;;;;;;;4.20;1.90;;;22.50;51.40;;;;;;4999109;28;20542;-90
2022/07/08 12:37:39;;;;;;;6.07;2.80;;;22.50;50.70;;;;;;4998150;28;20510;-88
2022/07/08 12:40:14;;;;;;;7.30;2.67;;;22.50;50.60;;;;;;4998959;28;20418;-90
2022/07/08 12:42:40;;;;;;;4.23;1.90;;;22.50;50.70;;;;;;4999536;28;20444;-90
2022/07/08 12:45:16;;;;;;;7.73;2.40;;;22.70;51.10;;;;;;5000214;28;20399;-90
2022/07/08 12:47:46;;;;;;;5.87;2.30;;;22.80;50.20;;;;;;4999233;28;20251;-89
2022/07/08 12:50:12;;;;;;;4.17;1.77;;;22.90;50.20;;;;;;4999167;28;20421;-88